Time;durP1;ratioP1;P1;durP2;ratioP2;P2;SDS_P1;SDS_P2;PMS_P1;PMS_P2;Temp;Humidity;BMP_temperature;BMP_pressure;BME280_temperature;BME280_humidity;BME280_pressure;Samples;Min_cycle;Max_cycle;Signal;HPM_P1;HPM_P2
2022/12/10 00:01:51;;;;;;;27.53;15.37;;;1.30;99.90;;;-141.84;81.62;18484.91;5051780;28;20222;-59
2022/12/10 00:04:21;;;;;;;25.57;15.17;;;1.30;99.90;;;-141.84;81.93;18466.63;5052107;28;20225;-61
2022/12/10 00:06:50;;;;;;;30.40;16.53;;;1.20;99.90;;;-141.84;82.00;18462.56;5051872;28;20240;-60
2022/12/10 00:09:21;;;;;;;27.10;16.47;;;1.30;99.90;;;-141.84;82.24;18486.94;5051438;28;20206;-61
2022/12/10 00:11:50;;;;;;;27.37;15.97;;;1.30;99.90;;;-141.84;82.04;18486.94;5052399;28;20186;-60
2022/12/10 00:14:19;;;;;;;26.03;15.40;;;1.30;99.90;;;-141.84;81.85;18482.88;5051395;28;20236;-60
2022/12/10 00:16:47;;;;;;;26.70;15.43;;;1.20;99.90;;;-141.84;82.29;18491.00;5051432;28;20236;-61
2022/12/10 00:19:16;;;;;;;26.83;15.60;;;1.20;99.90;;;-141.84;82.67;18462.56;5051700;28;20237;-60
2022/12/10 00:21:45;;;;;;;26.53;15.93;;;1.20;99.90;;;-141.84;82.33;18497.09;5051429;28;20241;-61
2022/12/10 00:24:13;;;;;;;27.10;16.20;;;1.20;99.90;;;-141.84;82.14;18454.44;5050880;28;20232;-61
2022/12/10 00:26:42;;;;;;;23.80;14.27;;;1.20;99.90;;;-141.84;82.42;18482.88;5051759;28;20538;-60
2022/12/10 00:29:13;;;;;;;23.20;14.67;;;1.10;99.90;;;-141.84;81.63;18482.88;5051091;28;20229;-61
2022/12/10 00:31:42;;;;;;;22.63;14.23;;;1.10;99.90;;;-141.84;81.78;18446.31;5051112;28;20232;-67
2022/12/10 00:34:12;;;;;;;23.03;13.73;;;1.10;99.90;;;-141.84;82.24;18428.03;5051523;28;20228;-67
2022/12/10 00:36:44;;;;;;;22.60;14.07;;;1.10;99.90;;;-141.84;81.80;18493.03;5051071;28;20245;-66
2022/12/10 00:39:15;;;;;;;23.83;14.57;;;1.10;99.90;;;-141.84;81.59;18468.66;5051289;28;20182;-66
2022/12/10 00:41:43;;;;;;;24.90;14.83;;;1.10;99.90;;;-141.84;81.84;18499.13;5051793;28;20200;-67
2022/12/10 00:44:12;;;;;;;22.57;13.87;;;1.10;99.90;;;-141.84;81.38;18501.16;5050942;28;20225;-66
2022/12/10 00:46:42;;;;;;;23.17;13.53;;;1.20;99.90;;;-141.84;81.33;18495.06;5051139;28;20236;-66
2022/12/10 00:49:11;;;;;;;26.73;15.23;;;1.10;99.90;;;-141.84;81.43;18482.88;5050535;28;20225;-67
2022/12/10 00:51:39;;;;;;;23.60;14.63;;;1.10;99.90;;;-141.84;81.92;18452.41;5050451;28;20720;-66
2022/12/10 00:54:09;;;;;;;26.30;15.13;;;1.10;99.90;;;-141.84;81.78;18486.94;5049666;28;20542;-66
2022/12/10 00:56:37;;;;;;;25.33;15.67;;;1.30;99.90;;;-141.84;81.35;18495.06;5050975;28;20248;-67
2022/12/10 00:59:06;;;;;;;28.00;16.13;;;1.10;99.90;;;-141.84;81.72;18486.94;5051020;28;20237;-67
2022/12/10 01:01:37;;;;;;;24.87;14.47;;;1.00;99.90;;;-141.84;81.24;18497.09;5050759;28;20615;-66
2022/12/10 01:04:12;;;;;;;26.57;14.40;;;1.10;99.90;;;-141.84;81.07;18515.38;5051083;28;20646;-66
2022/12/10 01:06:44;;;;;;;23.90;14.70;;;1.10;99.90;;;-141.84;82.08;18476.78;5031186;28;20221;-67
2022/12/10 01:09:17;;;;;;;24.83;14.83;;;1.00;99.90;;;-141.84;82.40;18452.41;5031392;28;20190;-66
2022/12/10 01:11:48;;;;;;;25.97;15.00;;;1.00;99.90;;;-141.84;82.38;18478.81;5031777;28;20190;-67
2022/12/10 01:14:25;;;;;;;26.73;15.60;;;1.00;99.90;;;-141.84;81.52;18462.56;5046105;28;20216;-67
2022/12/10 01:16:57;;;;;;;25.67;14.77;;;1.00;99.90;;;-141.84;81.48;18462.56;5050657;28;20688;-67
2022/12/10 01:19:27;;;;;;;26.90;15.00;;;1.10;99.90;;;-141.84;81.82;18462.56;5051171;28;20229;-66
2022/12/10 01:21:57;;;;;;;25.47;15.80;;;1.00;99.90;;;-141.84;82.17;18493.03;5051018;28;20259;-66
2022/12/10 01:24:29;;;;;;;28.10;15.37;;;1.00;99.90;;;-141.84;82.07;18468.66;5051109;28;20644;-67
2022/12/10 01:26:57;;;;;;;27.00;15.33;;;1.00;99.90;;;-141.84;82.43;18460.53;5051456;28;20231;-66
2022/12/10 01:29:26;;;;;;;24.90;15.37;;;1.00;99.90;;;-141.84;82.55;18442.25;5050866;28;20229;-66
2022/12/10 01:31:57;;;;;;;29.03;16.20;;;1.00;99.90;;;-141.84;81.94;18488.97;5050640;28;20229;-66
2022/12/10 01:34:27;;;;;;;25.70;15.33;;;1.10;99.90;;;-141.84;81.96;18460.53;5050912;28;20604;-66
2022/12/10 01:36:56;;;;;;;26.27;14.73;;;1.10;99.90;;;-141.84;81.82;18454.44;5050252;28;20229;-67
2022/12/10 01:39:24;;;;;;;25.67;14.13;;;1.10;99.90;;;-141.84;81.49;18491.00;5049853;28;20240;-67
2022/12/10 01:41:56;;;;;;;25.20;14.27;;;1.10;99.90;;;-141.84;81.66;18497.09;5050538;28;20304;-66
2022/12/10 01:45:09;;;;;;;27.43;15.37;;;1.10;99.90;;;-141.84;81.66;18486.94;5049914;28;20229;-67
2022/12/10 01:47:37;;;;;;;21.70;13.37;;;1.10;99.90;;;-141.84;81.11;18460.53;5050030;28;20198;-66
2022/12/10 01:50:09;;;;;;;24.50;14.50;;;1.10;99.90;;;-141.84;81.43;18460.53;5047295;28;20225;-66
2022/12/10 01:52:39;;;;;;;25.23;14.33;;;1.10;99.90;;;-141.84;81.63;18452.41;5042306;28;20245;-66
2022/12/10 01:55:43;;;;;;;23.03;14.30;;;1.00;99.90;;;-141.84;81.87;18468.66;5050946;28;20230;-65
2022/12/10 01:58:14;;;;;;;22.97;14.10;;;1.00;99.90;;;-141.84;82.01;18480.84;5050735;28;20277;-66
2022/12/10 02:00:57;;;;;;;24.03;14.10;;;1.10;99.90;;;-141.84;81.79;18497.09;5050723;28;20236;-66
2022/12/10 02:03:41;;;;;;;21.57;13.80;;;1.10;99.90;;;-141.84;81.52;18456.47;5050750;28;20700;-67
2022/12/10 02:06:28;;;;;;;23.50;13.33;;;1.10;99.90;;;-141.84;81.34;18468.66;5054520;28;20546;-67
2022/12/10 02:09:09;;;;;;;18.13;11.60;;;1.00;99.90;;;-141.84;80.88;18450.38;5054254;28;20202;-66
2022/12/10 02:11:47;;;;;;;22.87;12.53;;;1.00;99.90;;;-141.84;80.78;18499.13;5054630;28;20209;-67
2022/12/10 02:14:25;;;;;;;20.47;11.43;;;1.10;99.90;;;-141.84;80.74;18499.13;5054349;28;20233;-65
2022/12/10 02:16:59;;;;;;;20.83;12.97;;;1.00;99.90;;;-141.84;81.05;18472.72;5053795;28;20696;-66
2022/12/10 02:19:50;;;;;;;20.53;12.67;;;1.10;99.90;;;-141.84;81.08;18488.97;5053856;28;20237;-66
2022/12/10 02:22:24;;;;;;;20.17;12.10;;;1.00;99.90;;;-141.84;80.91;18456.47;5053632;28;20278;-67
2022/12/10 02:24:55;;;;;;;19.83;11.67;;;1.10;99.90;;;-141.84;80.80;18464.59;5054051;28;20768;-66
2022/12/10 02:27:33;;;;;;;21.60;12.27;;;1.10;99.90;;;-141.84;80.09;18501.16;5053991;28;20286;-66
2022/12/10 02:30:04;;;;;;;20.20;12.57;;;1.10;99.90;;;-141.84;80.07;18468.66;5054758;28;20196;-65
2022/12/10 02:32:38;;;;;;;20.60;12.23;;;1.20;99.90;;;-141.84;80.18;18470.69;5054142;28;20215;-66
2022/12/10 02:35:12;;;;;;;18.67;11.33;;;1.10;99.90;;;-141.84;80.21;18488.97;5053907;28;20306;-66
2022/12/10 02:37:48;;;;;;;19.03;11.87;;;1.10;99.90;;;-141.84;80.13;18501.16;5053537;28;20233;-67
2022/12/10 02:40:23;;;;;;;20.40;12.53;;;1.10;99.90;;;-141.84;80.44;18505.22;5054019;28;20232;-65
2022/12/10 02:42:53;;;;;;;23.00;12.83;;;1.10;99.90;;;-141.84;80.16;18515.38;5053819;28;20283;-66
2022/12/10 02:45:27;;;;;;;19.50;11.90;;;1.10;99.90;;;-141.84;80.57;18482.88;5053687;28;20225;-66
2022/12/10 02:48:01;;;;;;;20.50;12.77;;;1.10;99.90;;;-141.84;80.79;18507.25;5053981;28;20239;-65
2022/12/10 02:50:29;;;;;;;22.17;13.13;;;1.10;99.90;;;-141.84;80.25;18519.44;5047891;28;20210;-66
2022/12/10 02:52:57;;;;;;;21.50;13.60;;;1.10;99.90;;;-141.84;79.61;18478.81;5048575;28;20229;-66
2022/12/10 02:55:25;;;;;;;21.27;12.30;;;1.20;99.90;;;-141.84;79.87;18460.53;5053484;28;20225;-65
2022/12/10 02:58:12;;;;;;;21.70;12.93;;;1.20;99.90;;;-141.84;79.64;18505.22;5053474;28;20236;-67
2022/12/10 03:00:54;;;;;;;23.87;13.40;;;1.40;99.90;;;-141.84;78.66;18533.66;5053545;28;20229;-65
2022/12/10 03:03:36;;;;;;;23.50;13.03;;;1.40;99.90;;;-141.84;79.39;18519.44;5053196;28;20668;-67
2022/12/10 03:06:13;;;;;;;23.70;14.30;;;1.30;99.90;;;-141.84;80.01;18476.78;5053674;28;20232;-64
2022/12/10 03:08:49;;;;;;;22.00;12.80;;;1.20;99.90;;;-141.84;80.12;18491.00;5053928;28;20188;-67
2022/12/10 03:11:22;;;;;;;21.50;13.43;;;1.20;99.90;;;-141.84;80.20;18486.94;5053064;28;20750;-67
2022/12/10 03:13:59;;;;;;;25.13;14.67;;;1.20;99.90;;;-141.84;80.77;18486.94;5052967;28;20336;-67
2022/12/10 03:16:36;;;;;;;24.03;12.93;;;1.20;99.90;;;-141.84;80.31;18491.00;5052683;28;20229;-67
2022/12/10 03:19:10;;;;;;;22.47;13.90;;;1.20;99.90;;;-141.84;80.09;18495.06;5053290;28;20253;-67
2022/12/10 03:21:45;;;;;;;22.57;13.63;;;1.30;99.90;;;-141.84;79.45;18486.94;5053148;28;20229;-67
2022/12/10 03:24:16;;;;;;;23.93;13.77;;;1.30;99.90;;;-141.84;79.49;18452.41;5053125;28;20185;-67
2022/12/10 03:26:48;;;;;;;23.50;14.47;;;1.30;99.90;;;-141.84;80.10;18497.09;5053514;28;20540;-66
2022/12/10 03:29:24;;;;;;;26.03;14.40;;;1.30;99.90;;;-141.84;79.91;18511.31;5052717;28;20221;-66
2022/12/10 03:31:55;;;;;;;22.67;12.93;;;1.40;99.90;;;-141.84;79.95;18493.03;5052646;28;20234;-68
2022/12/10 03:34:24;;;;;;;22.20;13.70;;;1.40;99.90;;;-141.84;79.41;18570.22;5052770;28;20350;-66
2022/12/10 03:36:54;;;;;;;21.63;13.73;;;1.40;99.90;;;-141.84;79.27;18521.47;5052766;28;20241;-66
2022/12/10 03:39:23;;;;;;;20.83;12.97;;;1.50;99.90;;;-141.84;79.67;18505.22;5052470;28;20201;-67
2022/12/10 03:41:51;;;;;;;25.30;13.97;;;1.40;99.90;;;-141.84;80.20;18474.75;5053086;28;20209;-67
2022/12/10 03:44:30;;;;;;;23.10;14.73;;;1.30;99.90;;;-141.84;80.66;18468.66;5052443;28;20236;-66
2022/12/10 03:47:00;;;;;;;23.27;14.17;;;1.30;99.90;;;-141.84;80.45;18497.09;5052315;28;20270;-65
2022/12/10 03:49:28;;;;;;;23.57;14.23;;;1.30;99.90;;;-141.84;80.37;18491.00;5052213;28;20890;-68
2022/12/10 03:51:56;;;;;;;25.10;15.30;;;1.20;99.90;;;-141.84;80.46;18499.13;5041276;28;20224;-66
2022/12/10 03:54:24;;;;;;;20.50;13.57;;;1.20;99.90;;;-141.84;79.42;18517.41;5052204;28;20236;-66
2022/12/10 03:56:52;;;;;;;25.07;14.00;;;1.20;99.90;;;-141.84;79.80;18515.38;5052627;28;20198;-65
2022/12/10 03:59:21;;;;;;;24.37;14.70;;;1.20;99.90;;;-141.84;80.37;18497.09;5052187;28;20232;-65
2022/12/10 04:01:49;;;;;;;24.53;14.90;;;1.20;99.90;;;-141.84;80.46;18470.69;5051877;28;20295;-67
2022/12/10 04:04:18;;;;;;;26.27;15.90;;;1.10;99.90;;;-141.84;80.57;18493.03;5052189;28;20249;-67
2022/12/10 04:06:47;;;;;;;25.17;15.10;;;1.20;99.90;;;-141.84;80.45;18505.22;5052317;28;20228;-67
2022/12/10 04:09:17;;;;;;;25.17;15.07;;;1.10;99.90;;;-141.84;80.97;18454.44;5051942;28;20266;-67
2022/12/10 04:11:45;;;;;;;25.70;15.23;;;1.10;99.90;;;-141.84;80.76;18442.25;5052451;28;20706;-67
2022/12/10 04:17:00;;;;;;;28.70;16.83;;;1.00;99.90;;;-141.84;80.89;18521.47;5040773;28;20236;-66
2022/12/10 04:19:30;;;;;;;26.87;15.80;;;1.10;99.90;;;-141.84;80.53;18507.25;5051657;28;20227;-66
2022/12/10 04:27:33;;;;;;;30.93;16.00;;;1.00;99.90;;;-141.84;82.14;18484.91;5051046;28;20247;-66
2022/12/10 04:30:02;;;;;;;31.40;17.13;;;1.00;99.90;;;-141.84;81.84;18470.69;5052196;28;20242;-66
2022/12/10 04:32:30;;;;;;;27.77;15.47;;;1.10;99.90;;;-141.84;81.49;18491.00;5051961;28;20224;-66
2022/12/10 04:35:00;;;;;;;29.27;16.23;;;1.10;99.90;;;-141.84;81.77;18470.69;5051139;28;20599;-66
2022/12/10 04:37:29;;;;;;;28.00;15.50;;;1.10;99.90;;;-141.84;81.36;18521.47;5051380;28;20236;-66
2022/12/10 04:39:57;;;;;;;30.10;15.97;;;1.10;99.90;;;-141.84;81.63;18480.84;5051194;28;20283;-67
2022/12/10 04:42:25;;;;;;;29.03;15.77;;;1.10;99.90;;;-141.84;81.87;18517.41;5051312;28;20228;-67
2022/12/10 04:44:54;;;;;;;29.20;17.23;;;1.10;99.90;;;-141.84;82.03;18444.28;5051393;28;20659;-66
2022/12/10 04:47:22;;;;;;;32.20;16.67;;;1.00;99.90;;;-141.84;82.23;18505.22;5051334;28;20286;-66
2022/12/10 04:49:50;;;;;;;29.80;17.20;;;1.10;99.90;;;-141.84;81.97;18491.00;5050809;28;20252;-68
2022/12/10 04:52:19;;;;;;;27.77;16.30;;;1.00;99.90;;;-141.84;81.84;18482.88;5051165;28;20619;-67
2022/12/10 04:54:48;;;;;;;26.50;15.97;;;1.10;99.90;;;-141.84;82.30;18484.91;5051315;28;20564;-66
2022/12/10 04:57:16;;;;;;;29.90;17.03;;;1.10;99.90;;;-141.84;82.31;18488.97;5051289;28;20347;-65
2022/12/10 04:59:44;;;;;;;30.23;15.63;;;1.00;99.90;;;-141.84;82.44;18497.09;5051122;28;20201;-67
2022/12/10 05:02:12;;;;;;;30.50;16.67;;;1.00;99.90;;;-141.84;82.21;18511.31;5051503;28;20236;-67
2022/12/10 05:04:40;;;;;;;26.47;16.10;;;1.00;99.90;;;-141.84;82.42;18454.44;5052068;28;20221;-67
2022/12/10 05:07:08;;;;;;;30.13;16.83;;;1.00;99.90;;;-141.84;82.39;18509.28;5051400;28;20225;-66
2022/12/10 05:09:38;;;;;;;27.07;15.37;;;1.00;99.90;;;-141.84;81.27;18491.00;5051026;28;20789;-66
2022/12/10 05:12:07;;;;;;;28.80;15.60;;;1.20;99.90;;;-141.84;80.12;18505.22;5051560;28;20212;-66
2022/12/10 05:14:36;;;;;;;27.13;16.53;;;1.30;99.90;;;-141.84;79.94;18503.19;5051532;28;20244;-67
2022/12/10 05:17:04;;;;;;;28.33;15.70;;;1.20;99.90;;;-141.84;80.99;18486.94;5051022;28;20239;-66
2022/12/10 05:19:32;;;;;;;28.07;16.67;;;1.20;99.90;;;-141.84;80.86;18525.53;5051201;28;20233;-67
2022/12/10 05:24:47;;;;;;;30.00;16.70;;;1.20;99.90;;;-141.84;81.31;18466.63;5051086;28;20228;-66
2022/12/10 05:27:18;;;;;;;29.90;16.60;;;1.10;99.90;;;-141.84;81.94;18488.97;5051286;28;20181;-66
2022/12/10 05:29:46;;;;;;;28.87;16.43;;;1.10;99.90;;;-141.84;81.91;18499.13;5051348;28;20622;-66
2022/12/10 05:32:14;;;;;;;29.80;15.40;;;1.00;99.90;;;-141.84;82.14;18470.69;5050818;28;20228;-67
2022/12/10 05:34:42;;;;;;;30.00;16.77;;;1.00;99.90;;;-141.84;81.76;18488.97;5050911;28;20275;-67
2022/12/10 05:37:10;;;;;;;28.00;16.43;;;1.10;99.90;;;-141.84;81.45;18484.91;5050592;28;20229;-67
2022/12/10 05:39:38;;;;;;;28.33;16.27;;;1.10;99.90;;;-141.84;82.23;18468.66;5053324;28;20236;-67
2022/12/10 05:42:08;;;;;;;33.97;17.20;;;1.00;99.90;;;-141.84;82.26;18472.72;5054779;28;20258;-67
2022/12/10 05:44:36;;;;;;;29.97;16.77;;;1.00;99.90;;;-141.84;82.49;18482.88;5055219;28;20592;-67
2022/12/10 05:47:04;;;;;;;28.23;16.13;;;1.10;99.90;;;-141.84;82.44;18482.88;5054575;28;20228;-66
2022/12/10 05:49:32;;;;;;;30.17;16.60;;;1.00;99.90;;;-141.84;82.34;18484.91;5054462;28;20240;-67
2022/12/10 05:52:00;;;;;;;29.63;16.60;;;1.00;99.90;;;-141.84;82.20;18486.94;5054274;28;20282;-66
2022/12/10 05:54:29;;;;;;;29.00;16.00;;;1.00;99.90;;;-141.84;81.57;18480.84;5054542;28;20643;-66
2022/12/10 05:56:57;;;;;;;32.83;16.77;;;1.00;99.90;;;-141.84;81.31;18495.06;5054746;28;20213;-66
2022/12/10 05:59:27;;;;;;;29.67;16.33;;;1.00;99.90;;;-141.84;80.62;18499.13;5054346;28;20238;-67
2022/12/10 06:01:55;;;;;;;31.40;17.70;;;1.10;99.90;;;-141.84;80.74;18484.91;5054338;28;20904;-67
2022/12/10 06:04:23;;;;;;;32.53;17.10;;;1.00;99.90;;;-141.84;81.73;18488.97;5054344;28;20225;-66
2022/12/10 06:06:51;;;;;;;28.97;15.87;;;0.90;99.90;;;-141.84;82.33;18460.53;5054286;28;20230;-65
2022/12/10 06:09:19;;;;;;;31.03;17.37;;;0.90;99.90;;;-141.84;82.09;18497.09;5054098;28;20267;-67
2022/12/10 06:11:48;;;;;;;29.83;16.27;;;1.00;99.90;;;-141.84;82.00;18491.00;5054508;28;20259;-67
2022/12/10 06:14:16;;;;;;;28.80;16.07;;;0.90;99.90;;;-141.84;82.61;18497.09;5054102;28;20287;-66
2022/12/10 06:16:45;;;;;;;31.53;17.23;;;0.90;99.90;;;-141.84;82.24;18464.59;5053896;28;20221;-65
2022/12/10 06:19:13;;;;;;;30.70;16.50;;;0.90;99.90;;;-141.84;82.13;18450.38;5054449;28;20229;-66
2022/12/10 06:21:42;;;;;;;31.37;16.97;;;0.80;99.90;;;-141.84;82.00;18478.81;5054071;28;20845;-66
2022/12/10 06:24:10;;;;;;;30.93;16.97;;;0.80;99.90;;;-141.84;81.94;18486.94;5054184;28;20205;-67
2022/12/10 06:26:38;;;;;;;29.97;15.97;;;0.80;99.90;;;-141.84;81.43;18493.03;5054202;28;20665;-66
2022/12/10 06:29:06;;;;;;;31.50;16.73;;;0.90;99.90;;;-141.84;81.66;18476.78;5053797;28;20232;-66
2022/12/10 06:31:34;;;;;;;29.90;15.83;;;0.70;99.90;;;-141.84;81.61;18476.78;5053773;28;20815;-66
2022/12/10 06:34:04;;;;;;;30.97;16.83;;;0.80;99.90;;;-141.84;81.98;18448.34;5053962;28;20239;-66
2022/12/10 06:36:32;;;;;;;32.50;16.73;;;0.80;99.90;;;-141.84;82.40;18464.59;5053880;28;20230;-67
2022/12/10 06:39:00;;;;;;;31.50;16.27;;;0.80;99.90;;;-141.84;81.48;18493.03;5054047;28;20229;-65
2022/12/10 06:41:28;;;;;;;29.83;15.37;;;0.90;99.90;;;-141.84;81.09;18493.03;5053779;28;20221;-66
2022/12/10 06:43:58;;;;;;;30.10;15.73;;;0.80;99.90;;;-141.84;81.56;18478.81;5053441;28;20230;-66
2022/12/10 06:46:28;;;;;;;30.87;16.63;;;0.80;99.90;;;-141.84;81.12;18468.66;5053658;28;20225;-66
2022/12/10 06:48:56;;;;;;;30.17;16.67;;;0.80;99.90;;;-141.84;81.87;18462.56;5053445;28;20243;-66
2022/12/10 06:51:26;;;;;;;26.83;15.13;;;0.80;99.90;;;-141.84;81.11;18432.09;5052281;28;20597;-67
2022/12/10 06:53:54;;;;;;;31.50;17.57;;;0.80;99.90;;;-141.84;81.36;18488.97;5054177;28;20212;-66
2022/12/10 06:56:22;;;;;;;28.30;16.00;;;0.70;99.90;;;-141.84;82.03;18476.78;5053447;28;20291;-66
2022/12/10 06:58:51;;;;;;;27.33;15.43;;;0.70;99.90;;;-141.84;80.98;18513.34;5053205;28;20239;-66
2022/12/10 07:01:25;;;;;;;30.67;16.23;;;1.00;99.90;;;-141.84;80.30;18480.84;5053283;28;20600;-67
2022/12/10 07:03:56;;;;;;;26.07;15.23;;;0.80;99.90;;;-141.84;80.51;18482.88;5053239;28;20225;-66
2022/12/10 07:06:27;;;;;;;30.43;15.20;;;0.80;99.90;;;-141.84;80.53;18466.63;5053580;28;20231;-67
2022/12/10 07:08:56;;;;;;;29.90;16.60;;;0.80;99.90;;;-141.84;80.17;18501.16;5053513;28;20218;-65
2022/12/10 07:11:26;;;;;;;29.70;16.30;;;0.80;99.90;;;-141.84;80.30;18513.34;5053159;28;20228;-67
2022/12/10 07:13:54;;;;;;;33.73;16.93;;;0.80;99.90;;;-141.84;80.63;18517.41;5052715;28;20269;-67
2022/12/10 07:16:25;;;;;;;35.23;16.43;;;0.80;99.90;;;-141.84;81.20;18486.94;5053017;28;20653;-66
2022/12/10 07:18:55;;;;;;;30.50;15.93;;;1.00;99.90;;;-141.84;81.24;18488.97;5052385;28;20303;-66
2022/12/10 07:21:27;;;;;;;31.03;16.50;;;0.80;99.90;;;-141.84;81.08;18488.97;5052454;28;20266;-66
2022/12/10 07:23:58;;;;;;;26.80;14.77;;;0.70;99.90;;;-141.84;81.28;18450.38;5052863;28;20239;-66
2022/12/10 07:26:30;;;;;;;30.03;16.20;;;0.60;99.90;;;-141.84;81.50;18456.47;5052817;28;20228;-66
2022/12/10 07:29:00;;;;;;;28.87;15.23;;;0.60;99.90;;;-141.84;82.14;18448.34;5052425;28;20227;-66
2022/12/10 07:31:29;;;;;;;28.73;15.53;;;0.60;99.90;;;-141.84;81.87;18450.38;5052555;28;20742;-65
2022/12/10 07:33:59;;;;;;;28.23;15.13;;;0.60;99.90;;;-141.84;80.90;18488.97;5052428;28;20221;-65
2022/12/10 07:36:29;;;;;;;31.57;16.70;;;0.70;99.90;;;-141.84;80.48;18464.59;5052495;28;20232;-64
2022/12/10 07:38:57;;;;;;;29.77;15.47;;;0.70;99.90;;;-141.84;80.62;18484.91;5052794;28;20221;-66
2022/12/10 07:41:26;;;;;;;29.23;15.60;;;0.70;99.90;;;-141.84;80.45;18513.34;5052324;28;20335;-65
2022/12/10 07:43:54;;;;;;;28.17;16.27;;;0.80;99.90;;;-141.84;81.13;18478.81;5052003;28;20237;-65
2022/12/10 07:46:26;;;;;;;30.53;16.93;;;0.70;99.90;;;-141.84;80.78;18495.06;5052101;28;20228;-66
2022/12/10 07:48:56;;;;;;;29.63;15.07;;;0.70;99.90;;;-141.84;81.04;18448.34;5052325;28;20233;-65
2022/12/10 07:51:24;;;;;;;31.13;16.00;;;0.70;99.90;;;-141.84;81.76;18456.47;5052142;28;20228;-66
2022/12/10 07:53:55;;;;;;;28.03;15.30;;;0.60;99.90;;;-141.84;82.20;18442.25;5052146;28;20853;-65
2022/12/10 07:56:25;;;;;;;29.67;16.23;;;0.60;99.90;;;-141.84;81.94;18466.63;5052143;28;20232;-66
2022/12/10 07:58:54;;;;;;;26.77;15.27;;;0.60;99.90;;;-141.84;81.66;18460.53;5051891;28;20231;-66
2022/12/10 08:01:25;;;;;;;27.03;14.97;;;0.60;99.90;;;-141.84;81.96;18464.59;5051843;28;20236;-66
2022/12/10 08:03:57;;;;;;;29.87;15.97;;;0.60;99.90;;;-141.84;81.10;18491.00;5052010;28;20225;-65
2022/12/10 08:06:28;;;;;;;25.47;14.97;;;0.70;99.90;;;-141.84;81.46;18476.78;5052475;28;20229;-65
2022/12/10 08:09:00;;;;;;;29.27;15.43;;;0.70;99.90;;;-141.84;82.04;18440.22;5052345;28;20190;-64
2022/12/10 08:11:29;;;;;;;30.53;16.67;;;0.60;99.90;;;-141.84;81.36;18482.88;5052156;28;20220;-66
2022/12/10 08:13:57;;;;;;;30.43;15.37;;;0.70;99.90;;;-141.84;81.80;18456.47;5051579;28;20244;-66
2022/12/10 08:16:29;;;;;;;28.23;15.57;;;0.70;99.90;;;-141.84;82.00;18444.28;5053705;28;20286;-66
2022/12/10 08:19:00;;;;;;;30.27;16.27;;;0.70;99.90;;;-141.84;81.23;18462.56;5055713;28;20225;-66
2022/12/10 08:21:31;;;;;;;28.73;16.43;;;0.80;99.90;;;-141.84;80.32;18486.94;5051860;28;20235;-67
2022/12/10 08:24:01;;;;;;;27.97;15.13;;;0.80;99.90;;;-141.84;80.23;18491.00;5051869;28;20190;-67
2022/12/10 08:26:34;;;;;;;27.30;15.63;;;0.90;99.90;;;-141.84;79.17;18491.00;5051858;28;20223;-66
2022/12/10 08:29:02;;;;;;;31.20;17.40;;;0.90;99.90;;;-141.84;79.17;18480.84;5051164;28;20227;-65
2022/12/10 08:31:31;;;;;;;28.63;17.03;;;1.00;99.90;;;-141.84;79.15;18476.78;5051423;28;20232;-66
2022/12/10 08:34:06;;;;;;;28.17;16.43;;;1.00;99.90;;;-141.84;78.85;18482.88;5051419;28;20763;-66
2022/12/10 08:36:34;;;;;;;31.07;17.50;;;1.00;99.90;;;-141.84;79.02;18507.25;5051564;28;20240;-66
2022/12/10 08:39:04;;;;;;;26.03;14.83;;;1.00;99.90;;;-141.84;79.80;18486.94;5051449;28;20208;-65
2022/12/10 08:41:32;;;;;;;28.17;16.07;;;0.90;99.90;;;-141.84;79.65;18511.31;5031638;28;20295;-66
2022/12/10 08:44:00;;;;;;;29.20;17.07;;;0.90;99.90;;;-141.84;79.69;18511.31;5030900;28;20229;-65
2022/12/10 08:46:28;;;;;;;27.40;15.97;;;0.80;99.90;;;-141.84;80.54;18472.72;5043604;28;20225;-66
2022/12/10 08:48:56;;;;;;;30.13;17.63;;;0.80;99.90;;;-141.84;80.78;18472.72;5050855;28;20237;-66
2022/12/10 08:51:25;;;;;;;29.73;16.77;;;0.80;99.90;;;-141.84;81.03;18501.16;5047635;28;20226;-67
2022/12/10 08:53:54;;;;;;;30.70;17.47;;;0.80;99.90;;;-141.84;80.55;18527.56;5031522;28;20208;-67
2022/12/10 08:56:23;;;;;;;34.13;19.43;;;0.90;99.90;;;-141.84;79.34;18513.34;5031356;28;20233;-68
2022/12/10 08:58:51;;;;;;;33.67;19.87;;;0.90;99.90;;;-141.84;78.72;18505.22;5031206;28;20304;-66
2022/12/10 09:01:20;;;;;;;33.13;18.70;;;1.00;99.90;;;-141.84;78.83;18495.06;5030743;28;20233;-66
2022/12/10 09:03:49;;;;;;;29.53;16.77;;;0.90;99.90;;;-141.84;80.39;18484.91;5031141;28;20290;-65
2022/12/10 09:06:23;;;;;;;33.53;19.13;;;0.80;99.90;;;-141.84;80.43;18537.72;5031209;28;20213;-66
2022/12/10 09:08:52;;;;;;;35.67;19.97;;;0.90;99.90;;;-141.84;80.44;18501.16;5031572;28;20183;-65
2022/12/10 09:11:25;;;;;;;34.57;19.83;;;1.20;99.90;;;-141.84;80.32;18493.03;5031123;28;20217;-68
2022/12/10 09:13:54;;;;;;;32.87;17.57;;;1.00;99.90;;;-141.84;81.11;18476.78;5030806;28;20279;-66
2022/12/10 09:16:29;;;;;;;32.07;17.57;;;1.00;99.90;;;-141.84;79.58;18511.31;5041758;28;20582;-65
2022/12/10 09:18:57;;;;;;;31.67;17.50;;;1.10;99.90;;;-141.84;79.92;18491.00;5051024;28;20278;-66
2022/12/10 09:21:25;;;;;;;31.27;16.97;;;1.00;99.90;;;-141.84;79.07;18519.44;5051072;28;20599;-67
2022/12/10 09:23:54;;;;;;;31.07;17.20;;;1.10;99.90;;;-141.84;78.84;18507.25;5051256;28;20209;-65
2022/12/10 09:26:24;;;;;;;35.50;18.57;;;1.10;99.90;;;-141.84;79.13;18517.41;5050924;28;20608;-66
2022/12/10 09:28:52;;;;;;;32.63;18.03;;;1.10;99.90;;;-141.84;79.81;18486.94;5050441;28;20243;-64
2022/12/10 09:31:21;;;;;;;30.47;16.83;;;1.10;99.90;;;-141.84;78.88;18509.28;5050082;28;20229;-65
2022/12/10 09:33:52;;;;;;;29.73;16.37;;;1.10;99.90;;;-141.84;79.01;18525.53;5050714;28;20233;-64
2022/12/10 09:36:22;;;;;;;28.63;17.07;;;1.20;99.90;;;-141.84;78.80;18507.25;5050597;28;20194;-66
2022/12/10 09:38:57;;;;;;;28.23;15.90;;;1.20;99.90;;;-141.84;79.57;18531.63;5050894;28;20645;-66
2022/12/10 09:42:11;;;;;;;30.27;17.20;;;1.20;99.90;;;-141.84;78.00;18529.59;5050574;28;20321;-66
2022/12/10 09:44:56;;;;;;;30.33;17.63;;;1.30;99.90;;;-141.84;77.79;18521.47;5050435;28;20224;-66
2022/12/10 09:47:34;;;;;;;29.93;16.70;;;1.20;99.90;;;-141.84;78.53;18505.22;5050695;28;20225;-66
2022/12/10 09:50:19;;;;;;;27.07;15.57;;;1.30;99.90;;;-141.84;78.71;18491.00;5049945;28;20243;-65
2022/12/10 09:52:50;;;;;;;25.60;14.87;;;1.10;99.90;;;-141.84;79.33;18484.91;5050533;28;20253;-65
2022/12/10 09:55:33;;;;;;;31.03;16.33;;;1.10;99.90;;;-141.84;77.50;18515.38;5048458;28;20237;-64
2022/12/10 09:58:06;;;;;;;24.70;15.17;;;1.20;99.90;;;-141.84;77.90;18515.38;5050971;28;20233;-65
2022/12/10 10:00:39;;;;;;;29.17;16.43;;;1.20;99.90;;;-141.84;77.63;18527.56;5050192;28;20637;-66
2022/12/10 10:03:13;;;;;;;24.40;14.77;;;1.30;99.90;;;-141.84;77.10;18519.44;5050721;28;20650;-65
2022/12/10 10:05:46;;;;;;;24.90;14.60;;;1.30;99.90;;;-141.84;77.62;18527.56;5051317;28;20205;-66
2022/12/10 10:08:28;;;;;;;25.37;13.93;;;1.30;99.90;;;-141.84;77.59;18505.22;5050636;28;20233;-66
2022/12/10 10:10:57;;;;;;;25.10;14.70;;;1.20;99.90;;;-141.84;77.69;18533.66;5051711;28;20580;-66
2022/12/10 10:13:35;;;;;;;23.00;13.73;;;1.30;99.90;;;-141.84;76.44;18511.31;5050313;28;20233;-66
2022/12/10 10:16:23;;;;;;;25.97;14.97;;;1.30;99.90;;;-141.84;76.56;18543.81;5050004;28;20271;-66
2022/12/10 10:18:59;;;;;;;23.67;14.27;;;1.30;99.90;;;-141.84;76.68;18545.84;5050411;28;20233;-67
2022/12/10 10:21:31;;;;;;;25.20;15.03;;;1.40;99.90;;;-141.84;75.31;18521.47;5049266;28;20717;-66
2022/12/10 10:24:00;;;;;;;24.47;14.50;;;1.60;99.90;;;-141.84;74.96;18541.78;5050518;28;20185;-67
2022/12/10 10:26:33;;;;;;;22.47;13.60;;;1.60;99.90;;;-141.84;75.63;18562.09;5051691;28;20675;-63
2022/12/10 10:29:08;;;;;;;25.20;16.60;;;1.60;99.90;;;-141.84;75.67;18553.97;5052951;28;20436;-63